sensor_id;sensor_type;location;lat;lon;timestamp;temperature;humidity
8172;DHT22;4127;47.908;10.850;2023-08-01T00:00:03;18.50;99.90
8172;DHT22;4127;47.908;10.850;2023-08-01T00:02:32;18.50;99.90
8172;DHT22;4127;47.908;10.850;2023-08-01T00:04:59;18.50;99.90
8172;DHT22;4127;47.908;10.850;2023-08-01T00:07:40;18.50;99.90
8172;DHT22;4127;47.908;10.850;2023-08-01T00:10:07;18.50;99.90
8172;DHT22;4127;47.908;10.850;2023-08-01T00:12:34;18.50;99.90
8172;DHT22;4127;47.908;10.850;2023-08-01T00:15:01;18.50;99.90
8172;DHT22;4127;47.908;10.850;2023-08-01T00:17:28;18.50;99.90
8172;DHT22;4127;47.908;10.850;2023-08-01T00:19:55;18.40;99.90
8172;DHT22;4127;47.908;10.850;2023-08-01T00:22:22;18.40;99.90
8172;DHT22;4127;47.908;10.850;2023-08-01T00:24:49;18.40;99.90
8172;DHT22;4127;47.908;10.850;2023-08-01T00:27:16;18.40;99.90
8172;DHT22;4127;47.908;10.850;2023-08-01T00:30:07;18.40;99.90
8172;DHT22;4127;47.908;10.850;2023-08-01T00:32:36;18.40;99.90
8172;DHT22;4127;47.908;10.850;2023-08-01T00:35:03;18.40;99.90
8172;DHT22;4127;47.908;10.850;2023-08-01T00:37:30;18.30;99.90
8172;DHT22;4127;47.908;10.850;2023-08-01T00:39:57;18.40;99.90
8172;DHT22;4127;47.908;10.850;2023-08-01T00:42:24;18.30;99.90
8172;DHT22;4127;47.908;10.850;2023-08-01T00:44:58;18.30;99.90
8172;DHT22;4127;47.908;10.850;2023-08-01T00:47:27;18.30;99.90
8172;DHT22;4127;47.908;10.850;2023-08-01T00:49:54;18.40;99.90
8172;DHT22;4127;47.908;10.850;2023-08-01T00:52:21;18.40;99.90
8172;DHT22;4127;47.908;10.850;2023-08-01T00:54:48;18.40;99.90
8172;DHT22;4127;47.908;10.850;2023-08-01T00:57:15;18.50;99.90
8172;DHT22;4127;47.908;10.850;2023-08-01T00:59:42;18.60;99.90
8172;DHT22;4127;47.908;10.850;2023-08-01T01:02:09;18.60;99.90
8172;DHT22;4127;47.908;10.850;2023-08-01T01:04:36;18.70;99.90
8172;DHT22;4127;47.908;10.850;2023-08-01T01:07:06;18.80;99.90
8172;DHT22;4127;47.908;10.850;2023-08-01T01:09:33;18.80;99.90
8172;DHT22;4127;47.908;10.850;2023-08-01T01:12:00;18.90;99.90
8172;DHT22;4127;47.908;10.850;2023-08-01T01:14:42;18.90;99.90
8172;DHT22;4127;47.908;10.850;2023-08-01T01:17:09;18.80;99.90
8172;DHT22;4127;47.908;10.850;2023-08-01T01:19:36;18.90;99.90
8172;DHT22;4127;47.908;10.850;2023-08-01T01:22:07;19.00;99.90
8172;DHT22;4127;47.908;10.850;2023-08-01T01:24:36;19.00;99.90
8172;DHT22;4127;47.908;10.850;2023-08-01T01:27:04;19.00;99.90
8172;DHT22;4127;47.908;10.850;2023-08-01T01:29:32;19.00;99.80
8172;DHT22;4127;47.908;10.850;2023-08-01T01:32:43;19.10;99.90
8172;DHT22;4127;47.908;10.850;2023-08-01T01:35:10;19.10;99.80
8172;DHT22;4127;47.908;10.850;2023-08-01T01:37:37;19.00;99.90
8172;DHT22;4127;47.908;10.850;2023-08-01T01:40:04;19.00;99.90
8172;DHT22;4127;47.908;10.850;2023-08-01T01:42:31;19.10;99.70
8172;DHT22;4127;47.908;10.850;2023-08-01T01:44:58;19.10;99.90
8172;DHT22;4127;47.908;10.850;2023-08-01T01:47:25;19.10;99.90
8172;DHT22;4127;47.908;10.850;2023-08-01T01:49:52;19.10;99.80
8172;DHT22;4127;47.908;10.850;2023-08-01T01:52:19;19.10;99.80
8172;DHT22;4127;47.908;10.850;2023-08-01T01:54:46;19.10;99.70
8172;DHT22;4127;47.908;10.850;2023-08-01T01:57:12;19.10;99.70
8172;DHT22;4127;47.908;10.850;2023-08-01T01:59:39;19.10;99.70
8172;DHT22;4127;47.908;10.850;2023-08-01T02:02:25;19.10;99.90
8172;DHT22;4127;47.908;10.850;2023-08-01T02:04:52;19.10;99.80
8172;DHT22;4127;47.908;10.850;2023-08-01T02:07:19;19.10;99.90
8172;DHT22;4127;47.908;10.850;2023-08-01T02:09:46;19.10;99.80
8172;DHT22;4127;47.908;10.850;2023-08-01T02:12:13;19.10;99.60
8172;DHT22;4127;47.908;10.850;2023-08-01T02:14:43;19.10;99.60
8172;DHT22;4127;47.908;10.850;2023-08-01T02:17:10;19.10;99.40
8172;DHT22;4127;47.908;10.850;2023-08-01T02:19:36;19.10;99.30
8172;DHT22;4127;47.908;10.850;2023-08-01T02:22:03;19.10;99.30
8172;DHT22;4127;47.908;10.850;2023-08-01T02:24:30;19.20;99.30
8172;DHT22;4127;47.908;10.850;2023-08-01T02:26:57;19.20;99.10
8172;DHT22;4127;47.908;10.850;2023-08-01T02:29:24;19.20;99.10
8172;DHT22;4127;47.908;10.850;2023-08-01T02:31:51;19.20;99.10
8172;DHT22;4127;47.908;10.850;2023-08-01T02:34:18;19.20;99.00
8172;DHT22;4127;47.908;10.850;2023-08-01T02:36:45;19.20;98.90
8172;DHT22;4127;47.908;10.850;2023-08-01T02:39:11;19.20;99.00
8172;DHT22;4127;47.908;10.850;2023-08-01T02:41:38;19.20;98.90
8172;DHT22;4127;47.908;10.850;2023-08-01T02:44:05;19.20;98.90
8172;DHT22;4127;47.908;10.850;2023-08-01T02:46:32;19.30;98.80
8172;DHT22;4127;47.908;10.850;2023-08-01T02:48:59;19.30;98.70
8172;DHT22;4127;47.908;10.850;2023-08-01T02:51:26;19.30;98.80
8172;DHT22;4127;47.908;10.850;2023-08-01T02:53:52;19.30;98.90
8172;DHT22;4127;47.908;10.850;2023-08-01T02:56:19;19.30;99.00
8172;DHT22;4127;47.908;10.850;2023-08-01T02:58:46;19.30;99.20
8172;DHT22;4127;47.908;10.850;2023-08-01T03:01:13;19.30;99.40
8172;DHT22;4127;47.908;10.850;2023-08-01T03:03:40;19.20;99.90
8172;DHT22;4127;47.908;10.850;2023-08-01T03:06:08;19.10;99.90
8172;DHT22;4127;47.908;10.850;2023-08-01T03:08:35;19.10;99.90
8172;DHT22;4127;47.908;10.850;2023-08-01T03:11:02;19.10;99.90
8172;DHT22;4127;47.908;10.850;2023-08-01T03:13:29;19.10;99.90
8172;DHT22;4127;47.908;10.850;2023-08-01T03:16:11;19.10;99.90
8172;DHT22;4127;47.908;10.850;2023-08-01T03:18:38;19.10;99.90
8172;DHT22;4127;47.908;10.850;2023-08-01T03:21:05;19.00;99.90
8172;DHT22;4127;47.908;10.850;2023-08-01T03:23:32;19.00;99.90
8172;DHT22;4127;47.908;10.850;2023-08-01T03:25:59;19.00;99.90
8172;DHT22;4127;47.908;10.850;2023-08-01T03:28:26;19.00;99.90
8172;DHT22;4127;47.908;10.850;2023-08-01T03:30:53;19.00;99.90
8172;DHT22;4127;47.908;10.850;2023-08-01T03:33:21;18.90;99.90
8172;DHT22;4127;47.908;10.850;2023-08-01T03:35:47;18.90;99.90
8172;DHT22;4127;47.908;10.850;2023-08-01T03:38:14;18.80;99.90
8172;DHT22;4127;47.908;10.850;2023-08-01T03:40:41;18.70;99.90
8172;DHT22;4127;47.908;10.850;2023-08-01T03:43:20;18.70;99.90
8172;DHT22;4127;47.908;10.850;2023-08-01T03:45:51;18.70;99.90
8172;DHT22;4127;47.908;10.850;2023-08-01T03:48:18;18.70;99.90
8172;DHT22;4127;47.908;10.850;2023-08-01T03:50:45;18.70;99.90
8172;DHT22;4127;47.908;10.850;2023-08-01T03:53:12;18.70;99.90
8172;DHT22;4127;47.908;10.850;2023-08-01T03:55:57;18.70;99.90
8172;DHT22;4127;47.908;10.850;2023-08-01T03:58:23;18.70;99.90
8172;DHT22;4127;47.908;10.850;2023-08-01T04:01:06;18.70;99.90
8172;DHT22;4127;47.908;10.850;2023-08-01T04:03:33;18.70;99.90
8172;DHT22;4127;47.908;10.850;2023-08-01T04:06:00;18.70;99.90
8172;DHT22;4127;47.908;10.850;2023-08-01T04:08:27;18.70;99.90
8172;DHT22;4127;47.908;10.850;2023-08-01T04:10:54;18.60;99.90
8172;DHT22;4127;47.908;10.850;2023-08-01T04:13:21;18.60;99.90
8172;DHT22;4127;47.908;10.850;2023-08-01T04:15:48;18.60;99.90
8172;DHT22;4127;47.908;10.850;2023-08-01T04:18:15;18.60;99.90
8172;DHT22;4127;47.908;10.850;2023-08-01T04:20:42;18.50;99.90
8172;DHT22;4127;47.908;10.850;2023-08-01T04:23:12;18.40;99.90
8172;DHT22;4127;47.908;10.850;2023-08-01T04:25:42;18.30;99.90
8172;DHT22;4127;47.908;10.850;2023-08-01T04:28:48;18.20;99.90
8172;DHT22;4127;47.908;10.850;2023-08-01T13:32:57;20.30;99.90
8172;DHT22;4127;47.908;10.850;2023-08-01T13:35:25;20.60;99.90
8172;DHT22;4127;47.908;10.850;2023-08-01T13:37:52;20.40;99.90
8172;DHT22;4127;47.908;10.850;2023-08-01T13:40:19;20.40;99.90
8172;DHT22;4127;47.908;10.850;2023-08-01T13:42:46;20.30;99.90
8172;DHT22;4127;47.908;10.850;2023-08-01T13:45:12;20.30;99.90
8172;DHT22;4127;47.908;10.850;2023-08-01T13:47:39;20.30;99.90
8172;DHT22;4127;47.908;10.850;2023-08-01T13:50:07;20.40;99.90
8172;DHT22;4127;47.908;10.850;2023-08-01T13:52:33;20.30;99.90
8172;DHT22;4127;47.908;10.850;2023-08-01T13:55:00;20.00;99.90
8172;DHT22;4127;47.908;10.850;2023-08-01T13:57:29;19.90;99.90
8172;DHT22;4127;47.908;10.850;2023-08-01T13:59:56;19.60;99.90
8172;DHT22;4127;47.908;10.850;2023-08-01T14:02:38;19.60;99.90
8172;DHT22;4127;47.908;10.850;2023-08-01T14:05:06;19.60;99.90
8172;DHT22;4127;47.908;10.850;2023-08-01T14:07:35;19.50;99.90
8172;DHT22;4127;47.908;10.850;2023-08-01T14:10:07;19.40;99.90
8172;DHT22;4127;47.908;10.850;2023-08-01T14:12:37;19.30;99.90
8172;DHT22;4127;47.908;10.850;2023-08-01T14:15:09;19.10;99.90
8172;DHT22;4127;47.908;10.850;2023-08-01T14:17:54;19.00;99.90
8172;DHT22;4127;47.908;10.850;2023-08-01T14:20:35;19.00;99.90
8172;DHT22;4127;47.908;10.850;2023-08-01T14:23:07;19.00;99.90
8172;DHT22;4127;47.908;10.850;2023-08-01T15:23:17;17.90;99.90
8172;DHT22;4127;47.908;10.850;2023-08-01T15:25:57;18.00;99.90
8172;DHT22;4127;47.908;10.850;2023-08-01T15:28:25;18.20;99.90
8172;DHT22;4127;47.908;10.850;2023-08-01T15:31:06;18.30;99.90
8172;DHT22;4127;47.908;10.850;2023-08-01T15:33:36;18.30;99.90
8172;DHT22;4127;47.908;10.850;2023-08-01T15:36:05;18.30;99.90
8172;DHT22;4127;47.908;10.850;2023-08-01T15:38:33;18.20;99.90
8172;DHT22;4127;47.908;10.850;2023-08-01T15:41:01;18.10;99.90
8172;DHT22;4127;47.908;10.850;2023-08-01T15:43:37;18.10;99.90
8172;DHT22;4127;47.908;10.850;2023-08-01T15:46:06;18.10;99.90
8172;DHT22;4127;47.908;10.850;2023-08-01T15:48:34;18.10;99.90
8172;DHT22;4127;47.908;10.850;2023-08-01T15:51:02;18.10;99.90
8172;DHT22;4127;47.908;10.850;2023-08-01T15:53:30;18.00;99.90
8172;DHT22;4127;47.908;10.850;2023-08-01T15:55:58;18.00;99.90
8172;DHT22;4127;47.908;10.850;2023-08-01T15:58:26;18.10;99.90
8172;DHT22;4127;47.908;10.850;2023-08-01T16:00:53;18.00;99.90
8172;DHT22;4127;47.908;10.850;2023-08-01T16:03:20;18.00;99.90
8172;DHT22;4127;47.908;10.850;2023-08-01T16:05:47;18.00;99.90
8172;DHT22;4127;47.908;10.850;2023-08-01T16:08:16;18.00;99.90
8172;DHT22;4127;47.908;10.850;2023-08-01T16:10:43;17.90;99.90
8172;DHT22;4127;47.908;10.850;2023-08-01T16:13:11;17.90;99.90
8172;DHT22;4127;47.908;10.850;2023-08-01T16:15:40;18.00;99.90
8172;DHT22;4127;47.908;10.850;2023-08-01T16:18:08;18.00;99.90
8172;DHT22;4127;47.908;10.850;2023-08-01T16:20:35;17.90;99.90
8172;DHT22;4127;47.908;10.850;2023-08-01T16:23:02;17.80;99.90
8172;DHT22;4127;47.908;10.850;2023-08-01T16:25:29;17.70;99.90
8172;DHT22;4127;47.908;10.850;2023-08-01T16:27:56;17.60;99.90
8172;DHT22;4127;47.908;10.850;2023-08-01T16:30:22;17.50;99.90
8172;DHT22;4127;47.908;10.850;2023-08-01T16:32:49;17.40;99.90
8172;DHT22;4127;47.908;10.850;2023-08-01T16:35:17;17.30;99.90
8172;DHT22;4127;47.908;10.850;2023-08-01T16:37:45;17.30;99.90
8172;DHT22;4127;47.908;10.850;2023-08-01T16:40:12;17.10;99.90
8172;DHT22;4127;47.908;10.850;2023-08-01T16:42:39;17.00;99.90
8172;DHT22;4127;47.908;10.850;2023-08-01T16:45:07;16.80;99.90
8172;DHT22;4127;47.908;10.850;2023-08-01T16:47:36;16.70;99.90
8172;DHT22;4127;47.908;10.850;2023-08-01T16:50:19;16.60;99.90
8172;DHT22;4127;47.908;10.850;2023-08-01T16:52:47;16.60;99.90
8172;DHT22;4127;47.908;10.850;2023-08-01T16:55:14;16.50;99.90
8172;DHT22;4127;47.908;10.850;2023-08-01T16:57:43;16.30;99.90
8172;DHT22;4127;47.908;10.850;2023-08-01T17:00:10;16.20;99.90
8172;DHT22;4127;47.908;10.850;2023-08-01T17:02:37;16.00;99.90
8172;DHT22;4127;47.908;10.850;2023-08-01T17:05:05;16.00;99.90
8172;DHT22;4127;47.908;10.850;2023-08-01T17:07:32;16.00;99.90
8172;DHT22;4127;47.908;10.850;2023-08-01T17:10:03;16.00;99.90
8172;DHT22;4127;47.908;10.850;2023-08-01T17:12:34;16.00;99.90
8172;DHT22;4127;47.908;10.850;2023-08-01T17:15:01;16.00;99.90
8172;DHT22;4127;47.908;10.850;2023-08-01T17:17:28;16.00;99.90
8172;DHT22;4127;47.908;10.850;2023-08-01T17:19:55;16.00;99.90
8172;DHT22;4127;47.908;10.850;2023-08-01T17:22:22;16.00;99.90
8172;DHT22;4127;47.908;10.850;2023-08-01T17:24:53;15.90;99.90
8172;DHT22;4127;47.908;10.850;2023-08-01T17:27:20;16.00;99.90
8172;DHT22;4127;47.908;10.850;2023-08-01T17:29:48;16.00;99.90
8172;DHT22;4127;47.908;10.850;2023-08-01T17:32:15;16.10;99.90
8172;DHT22;4127;47.908;10.850;2023-08-01T17:34:42;16.10;99.90
8172;DHT22;4127;47.908;10.850;2023-08-01T17:37:09;16.20;99.90
8172;DHT22;4127;47.908;10.850;2023-08-01T17:39:36;16.10;99.90
8172;DHT22;4127;47.908;10.850;2023-08-01T17:42:04;16.10;99.90
8172;DHT22;4127;47.908;10.850;2023-08-01T17:44:31;16.10;99.90
8172;DHT22;4127;47.908;10.850;2023-08-01T17:47:07;16.10;99.90
8172;DHT22;4127;47.908;10.850;2023-08-01T17:49:34;16.10;99.90
8172;DHT22;4127;47.908;10.850;2023-08-01T17:52:01;16.10;99.90
8172;DHT22;4127;47.908;10.850;2023-08-01T17:54:28;16.10;99.90
8172;DHT22;4127;47.908;10.850;2023-08-01T17:56:56;16.20;99.90
8172;DHT22;4127;47.908;10.850;2023-08-01T17:59:22;16.10;99.90
8172;DHT22;4127;47.908;10.850;2023-08-01T18:01:50;16.10;99.90
8172;DHT22;4127;47.908;10.850;2023-08-01T18:04:18;16.10;99.90
8172;DHT22;4127;47.908;10.850;2023-08-01T18:06:45;16.10;99.90
8172;DHT22;4127;47.908;10.850;2023-08-01T18:09:12;16.10;99.90
8172;DHT22;4127;47.908;10.850;2023-08-01T18:11:39;16.10;99.90
8172;DHT22;4127;47.908;10.850;2023-08-01T18:14:08;16.10;99.90
8172;DHT22;4127;47.908;10.850;2023-08-01T18:16:36;16.10;99.90
8172;DHT22;4127;47.908;10.850;2023-08-01T18:19:03;16.10;99.90
8172;DHT22;4127;47.908;10.850;2023-08-01T18:21:30;16.10;99.90
8172;DHT22;4127;47.908;10.850;2023-08-01T18:23:57;16.10;99.90
8172;DHT22;4127;47.908;10.850;2023-08-01T18:26:24;16.10;99.90
8172;DHT22;4127;47.908;10.850;2023-08-01T18:28:52;16.10;99.90
8172;DHT22;4127;47.908;10.850;2023-08-01T18:31:23;16.10;99.90
8172;DHT22;4127;47.908;10.850;2023-08-01T18:33:50;16.10;99.90
8172;DHT22;4127;47.908;10.850;2023-08-01T18:36:19;16.00;99.90
8172;DHT22;4127;47.908;10.850;2023-08-01T18:38:48;16.00;99.90
8172;DHT22;4127;47.908;10.850;2023-08-01T18:41:16;15.90;99.90
8172;DHT22;4127;47.908;10.850;2023-08-01T18:43:46;15.90;99.90
8172;DHT22;4127;47.908;10.850;2023-08-01T18:46:13;16.00;99.90
8172;DHT22;4127;47.908;10.850;2023-08-01T18:48:41;16.00;99.90
8172;DHT22;4127;47.908;10.850;2023-08-01T18:51:10;16.00;99.90
8172;DHT22;4127;47.908;10.850;2023-08-01T18:53:38;16.00;99.90
8172;DHT22;4127;47.908;10.850;2023-08-01T18:56:08;15.90;99.90
8172;DHT22;4127;47.908;10.850;2023-08-01T18:58:39;15.90;99.90
8172;DHT22;4127;47.908;10.850;2023-08-01T19:03:38;15.90;99.90
8172;DHT22;4127;47.908;10.850;2023-08-01T19:06:05;15.90;99.90
8172;DHT22;4127;47.908;10.850;2023-08-01T19:08:32;15.90;99.90
8172;DHT22;4127;47.908;10.850;2023-08-01T19:10:59;15.90;99.90
8172;DHT22;4127;47.908;10.850;2023-08-01T19:13:26;15.90;99.90
8172;DHT22;4127;47.908;10.850;2023-08-01T19:15:53;15.80;99.90
8172;DHT22;4127;47.908;10.850;2023-08-01T19:18:20;15.80;99.90
8172;DHT22;4127;47.908;10.850;2023-08-01T19:20:47;15.70;99.90
8172;DHT22;4127;47.908;10.850;2023-08-01T19:23:14;15.70;99.90
8172;DHT22;4127;47.908;10.850;2023-08-01T19:25:41;15.60;99.90
8172;DHT22;4127;47.908;10.850;2023-08-01T19:28:08;15.60;99.90
8172;DHT22;4127;47.908;10.850;2023-08-01T19:30:37;15.50;99.90
8172;DHT22;4127;47.908;10.850;2023-08-01T19:33:04;15.50;99.90
8172;DHT22;4127;47.908;10.850;2023-08-01T19:35:31;15.50;99.90
8172;DHT22;4127;47.908;10.850;2023-08-01T19:37:58;15.60;99.90
8172;DHT22;4127;47.908;10.850;2023-08-01T19:40:25;15.50;99.90
8172;DHT22;4127;47.908;10.850;2023-08-01T19:42:52;15.50;99.90
8172;DHT22;4127;47.908;10.850;2023-08-01T19:45:19;15.50;99.90
8172;DHT22;4127;47.908;10.850;2023-08-01T19:47:46;15.50;99.90
8172;DHT22;4127;47.908;10.850;2023-08-01T19:50:13;15.50;99.90
8172;DHT22;4127;47.908;10.850;2023-08-01T19:52:40;15.40;99.90
8172;DHT22;4127;47.908;10.850;2023-08-01T19:55:07;15.40;99.90
8172;DHT22;4127;47.908;10.850;2023-08-01T19:57:34;15.40;99.90
8172;DHT22;4127;47.908;10.850;2023-08-01T20:00:02;15.40;99.90
8172;DHT22;4127;47.908;10.850;2023-08-01T20:02:33;15.40;99.90
8172;DHT22;4127;47.908;10.850;2023-08-01T20:05:06;15.40;99.90
8172;DHT22;4127;47.908;10.850;2023-08-01T20:07:33;15.40;99.90
8172;DHT22;4127;47.908;10.850;2023-08-01T20:10:01;15.40;99.90
8172;DHT22;4127;47.908;10.850;2023-08-01T20:12:30;15.40;99.90
8172;DHT22;4127;47.908;10.850;2023-08-01T20:14:57;15.30;99.90
8172;DHT22;4127;47.908;10.850;2023-08-01T20:17:24;15.30;99.90
8172;DHT22;4127;47.908;10.850;2023-08-01T20:19:51;15.30;99.90
8172;DHT22;4127;47.908;10.850;2023-08-01T20:22:21;15.30;99.90
8172;DHT22;4127;47.908;10.850;2023-08-01T20:24:48;15.30;99.90
8172;DHT22;4127;47.908;10.850;2023-08-01T20:27:15;15.30;99.90
8172;DHT22;4127;47.908;10.850;2023-08-01T20:29:42;15.30;99.90
8172;DHT22;4127;47.908;10.850;2023-08-01T20:32:09;15.40;99.90
8172;DHT22;4127;47.908;10.850;2023-08-01T20:34:36;15.40;99.90
8172;DHT22;4127;47.908;10.850;2023-08-01T20:37:03;15.30;99.90
8172;DHT22;4127;47.908;10.850;2023-08-01T20:39:30;15.40;99.90
8172;DHT22;4127;47.908;10.850;2023-08-01T20:41:57;15.30;99.90
8172;DHT22;4127;47.908;10.850;2023-08-01T20:44:24;15.30;99.90
8172;DHT22;4127;47.908;10.850;2023-08-01T20:46:51;15.30;99.90
8172;DHT22;4127;47.908;10.850;2023-08-01T20:49:18;15.20;99.90
8172;DHT22;4127;47.908;10.850;2023-08-01T20:51:45;15.20;99.90
8172;DHT22;4127;47.908;10.850;2023-08-01T20:54:12;15.30;99.90
8172;DHT22;4127;47.908;10.850;2023-08-01T20:56:39;15.30;99.90
8172;DHT22;4127;47.908;10.850;2023-08-01T20:59:06;15.30;99.90
8172;DHT22;4127;47.908;10.850;2023-08-01T21:01:33;15.40;99.90
8172;DHT22;4127;47.908;10.850;2023-08-01T21:04:00;15.50;99.90
8172;DHT22;4127;47.908;10.850;2023-08-01T21:06:27;15.50;99.90
8172;DHT22;4127;47.908;10.850;2023-08-01T21:08:54;15.50;99.90
8172;DHT22;4127;47.908;10.850;2023-08-01T21:11:31;15.50;99.90
8172;DHT22;4127;47.908;10.850;2023-08-01T21:13:59;15.50;99.90
8172;DHT22;4127;47.908;10.850;2023-08-01T21:16:26;15.60;99.90
8172;DHT22;4127;47.908;10.850;2023-08-01T21:18:52;15.60;99.90
8172;DHT22;4127;47.908;10.850;2023-08-01T21:21:19;15.60;99.90
8172;DHT22;4127;47.908;10.850;2023-08-01T21:23:46;15.60;99.90
8172;DHT22;4127;47.908;10.850;2023-08-01T21:26:13;15.50;99.90
8172;DHT22;4127;47.908;10.850;2023-08-01T21:28:40;15.50;99.90
8172;DHT22;4127;47.908;10.850;2023-08-01T21:31:07;15.50;99.90
8172;DHT22;4127;47.908;10.850;2023-08-01T21:33:37;15.50;99.90
8172;DHT22;4127;47.908;10.850;2023-08-01T21:36:04;15.40;99.90
8172;DHT22;4127;47.908;10.850;2023-08-01T21:38:31;15.40;99.90
8172;DHT22;4127;47.908;10.850;2023-08-01T21:41:01;15.30;99.90
8172;DHT22;4127;47.908;10.850;2023-08-01T21:43:28;15.30;99.90
8172;DHT22;4127;47.908;10.850;2023-08-01T21:45:57;15.20;99.90
8172;DHT22;4127;47.908;10.850;2023-08-01T21:48:25;15.20;99.90
8172;DHT22;4127;47.908;10.850;2023-08-01T21:50:51;15.20;99.90
8172;DHT22;4127;47.908;10.850;2023-08-01T21:53:18;15.20;99.90
8172;DHT22;4127;47.908;10.850;2023-08-01T21:55:46;15.20;99.90
8172;DHT22;4127;47.908;10.850;2023-08-01T21:58:14;15.10;99.90
8172;DHT22;4127;47.908;10.850;2023-08-01T22:00:44;15.10;99.90
8172;DHT22;4127;47.908;10.850;2023-08-01T22:03:12;15.00;99.90
8172;DHT22;4127;47.908;10.850;2023-08-01T22:05:39;15.00;99.90
8172;DHT22;4127;47.908;10.850;2023-08-01T22:08:06;15.00;99.90
8172;DHT22;4127;47.908;10.850;2023-08-01T22:10:34;15.10;99.90
8172;DHT22;4127;47.908;10.850;2023-08-01T22:13:01;15.10;99.90
8172;DHT22;4127;47.908;10.850;2023-08-01T22:15:28;15.10;99.90
8172;DHT22;4127;47.908;10.850;2023-08-01T22:17:56;15.10;99.90
8172;DHT22;4127;47.908;10.850;2023-08-01T22:20:23;15.10;99.90
8172;DHT22;4127;47.908;10.850;2023-08-01T22:22:50;15.10;99.90
8172;DHT22;4127;47.908;10.850;2023-08-01T22:25:17;15.00;99.90
8172;DHT22;4127;47.908;10.850;2023-08-01T22:27:44;15.00;99.90
8172;DHT22;4127;47.908;10.850;2023-08-01T22:30:11;14.90;99.90
8172;DHT22;4127;47.908;10.850;2023-08-01T22:32:38;15.00;99.90
8172;DHT22;4127;47.908;10.850;2023-08-01T22:35:06;15.00;99.90
8172;DHT22;4127;47.908;10.850;2023-08-01T22:37:33;14.90;99.90
8172;DHT22;4127;47.908;10.850;2023-08-01T22:40:00;14.90;99.90
8172;DHT22;4127;47.908;10.850;2023-08-01T22:42:27;15.00;99.90
8172;DHT22;4127;47.908;10.850;2023-08-01T22:44:54;14.90;99.90
8172;DHT22;4127;47.908;10.850;2023-08-01T22:47:21;14.90;99.90
8172;DHT22;4127;47.908;10.850;2023-08-01T22:49:48;14.90;99.90
8172;DHT22;4127;47.908;10.850;2023-08-01T22:52:31;14.90;99.90
8172;DHT22;4127;47.908;10.850;2023-08-01T22:54:58;14.90;99.90
8172;DHT22;4127;47.908;10.850;2023-08-01T22:57:25;14.80;99.90
8172;DHT22;4127;47.908;10.850;2023-08-01T22:59:52;14.80;99.90
8172;DHT22;4127;47.908;10.850;2023-08-01T23:02:19;14.70;99.90
8172;DHT22;4127;47.908;10.850;2023-08-01T23:04:46;14.70;99.90
8172;DHT22;4127;47.908;10.850;2023-08-01T23:07:14;14.60;99.90
8172;DHT22;4127;47.908;10.850;2023-08-01T23:09:42;14.60;99.90
8172;DHT22;4127;47.908;10.850;2023-08-01T23:12:09;14.50;99.90
8172;DHT22;4127;47.908;10.850;2023-08-01T23:14:36;14.50;99.90
8172;DHT22;4127;47.908;10.850;2023-08-01T23:17:03;14.50;99.90
8172;DHT22;4127;47.908;10.850;2023-08-01T23:19:30;14.40;99.90
8172;DHT22;4127;47.908;10.850;2023-08-01T23:21:57;14.30;99.90
8172;DHT22;4127;47.908;10.850;2023-08-01T23:24:24;14.30;99.90
8172;DHT22;4127;47.908;10.850;2023-08-01T23:26:51;14.20;99.90
8172;DHT22;4127;47.908;10.850;2023-08-01T23:29:18;14.20;99.90
8172;DHT22;4127;47.908;10.850;2023-08-01T23:31:45;14.20;99.90
8172;DHT22;4127;47.908;10.850;2023-08-01T23:34:12;14.10;99.90
8172;DHT22;4127;47.908;10.850;2023-08-01T23:36:38;14.10;99.90
8172;DHT22;4127;47.908;10.850;2023-08-01T23:39:06;14.00;99.90
8172;DHT22;4127;47.908;10.850;2023-08-01T23:41:32;14.00;99.90
8172;DHT22;4127;47.908;10.850;2023-08-01T23:43:59;13.90;99.90
8172;DHT22;4127;47.908;10.850;2023-08-01T23:46:26;13.90;99.90
8172;DHT22;4127;47.908;10.850;2023-08-01T23:48:53;13.80;99.90
8172;DHT22;4127;47.908;10.850;2023-08-01T23:51:20;13.80;99.90
8172;DHT22;4127;47.908;10.850;2023-08-01T23:53:47;13.80;99.90
8172;DHT22;4127;47.908;10.850;2023-08-01T23:56:14;13.70;99.90
8172;DHT22;4127;47.908;10.850;2023-08-01T23:58:41;13.70;99.90
